Time;durP1;ratioP1;P1;durP2;ratioP2;P2;SDS_P1;SDS_P2;PMS_P1;PMS_P2;Temp;Humidity;BMP_temperature;BMP_pressure;BME280_temperature;BME280_humidity;BME280_pressure;Samples;Min_cycle;Max_cycle;Signal;HPM_P1;HPM_P2
2022/03/16 00:01:28;;;;;;;5.13;1.40;;;14.60;87.50;;;;;;5061284;28;20585;-60
2022/03/16 00:03:59;;;;;;;3.53;1.00;;;14.50;89.20;;;;;;5059794;28;21161;-60
2022/03/16 00:06:32;;;;;;;3.23;0.97;;;14.50;89.60;;;;;;5059314;28;20451;-60
2022/03/16 00:09:25;;;;;;;3.60;1.17;;;14.60;91.40;;;;;;5057009;28;20448;-59
2022/03/16 00:11:56;;;;;;;3.77;1.57;;;14.50;90.80;;;;;;5064258;28;20503;-60
2022/03/16 00:14:27;;;;;;;3.87;1.23;;;14.50;91.50;;;;;;5060001;28;20457;-60
2022/03/16 00:16:58;;;;;;;2.97;1.30;;;14.40;91.10;;;;;;5060051;28;20884;-59
2022/03/16 00:19:32;;;;;;;1.83;1.10;;;14.30;92.00;;;;;;5061121;28;20456;-59
2022/03/16 00:22:06;;;;;;;1.60;1.00;;;14.40;93.50;;;;;;5060760;28;20670;-59
2022/03/16 00:24:38;;;;;;;2.73;0.87;;;14.50;92.20;;;;;;5063540;28;20555;-61
2022/03/16 00:27:08;;;;;;;1.90;1.00;;;14.50;92.50;;;;;;5060690;28;20505;-60
2022/03/16 00:29:39;;;;;;;3.47;0.97;;;14.40;91.60;;;;;;5065412;28;20457;-60
2022/03/16 00:32:10;;;;;;;4.13;1.20;;;14.40;92.70;;;;;;5065051;28;20464;-63
2022/03/16 00:34:42;;;;;;;2.20;1.20;;;14.30;92.40;;;;;;5061488;28;20449;-60
2022/03/16 00:37:14;;;;;;;4.93;1.80;;;14.10;93.10;;;;;;5063441;28;20518;-60
2022/03/16 00:39:45;;;;;;;3.20;1.30;;;13.80;93.50;;;;;;5068709;28;20452;-60
2022/03/16 00:42:16;;;;;;;5.03;1.57;;;13.60;94.70;;;;;;5063612;28;20468;-60
2022/03/16 00:44:46;;;;;;;2.80;1.30;;;13.40;95.40;;;;;;5068956;28;20452;-60
2022/03/16 00:47:17;;;;;;;2.60;1.17;;;13.30;95.30;;;;;;5065975;28;20474;-61
2022/03/16 00:49:48;;;;;;;2.60;1.07;;;13.30;96.10;;;;;;5069109;28;20447;-60
2022/03/16 00:52:20;;;;;;;3.70;1.00;;;13.20;95.50;;;;;;5068961;28;20475;-62
2022/03/16 00:54:52;;;;;;;2.80;1.10;;;13.10;96.00;;;;;;5064262;28;20460;-61
2022/03/16 00:57:23;;;;;;;2.17;1.10;;;13.20;96.30;;;;;;5069892;28;20452;-59
2022/03/16 00:59:53;;;;;;;5.10;1.13;;;13.10;96.50;;;;;;5065051;28;20603;-60
2022/03/16 01:02:24;;;;;;;3.63;1.10;;;13.10;97.10;;;;;;5064007;28;20463;-65
2022/03/16 01:04:56;;;;;;;2.80;1.47;;;13.00;97.10;;;;;;5049247;28;20452;-65
2022/03/16 01:07:28;;;;;;;1.53;1.10;;;13.10;97.20;;;;;;5075735;28;20452;-65
2022/03/16 01:10:08;;;;;;;2.60;1.27;;;13.10;98.00;;;;;;5071169;28;20452;-64
2022/03/16 01:12:39;;;;;;;3.47;0.90;;;13.10;97.50;;;;;;5066334;28;20510;-61
2022/03/16 01:15:17;;;;;;;3.43;1.40;;;13.00;97.80;;;;;;5074040;28;20462;-66
2022/03/16 01:17:48;;;;;;;3.53;1.20;;;13.00;97.00;;;;;;5068584;28;20470;-62
2022/03/16 01:20:22;;;;;;;3.27;1.30;;;12.90;98.20;;;;;;5069772;28;20507;-63
2022/03/16 01:22:55;;;;;;;2.00;1.10;;;12.90;98.80;;;;;;5067453;28;20561;-60
2022/03/16 01:25:26;;;;;;;3.47;1.20;;;12.90;98.30;;;;;;5066873;28;20533;-61
2022/03/16 01:27:57;;;;;;;2.77;0.97;;;12.80;97.70;;;;;;5067382;28;20516;-62
2022/03/16 01:30:28;;;;;;;2.53;1.70;;;12.70;97.50;;;;;;5066549;28;20560;-61
2022/03/16 01:32:59;;;;;;;2.73;1.20;;;12.60;98.20;;;;;;5067100;28;20484;-62
2022/03/16 01:35:30;;;;;;;5.30;3.73;;;12.70;98.60;;;;;;5068739;28;21184;-62
2022/03/16 01:38:03;;;;;;;3.63;2.30;;;12.70;98.20;;;;;;5069961;28;20815;-63
2022/03/16 01:40:34;;;;;;;2.50;1.50;;;12.60;98.40;;;;;;5067524;28;20452;-62
2022/03/16 01:43:06;;;;;;;3.33;1.40;;;12.50;98.90;;;;;;5065824;28;20459;-61
2022/03/16 01:45:36;;;;;;;3.23;1.67;;;12.40;99.20;;;;;;5065389;28;20788;-60
2022/03/16 01:48:07;;;;;;;6.53;2.10;;;12.30;99.70;;;;;;5063446;28;20460;-60
2022/03/16 01:50:38;;;;;;;4.87;1.53;;;12.20;99.90;;;;;;5064234;28;20472;-60
2022/03/16 01:53:13;;;;;;;7.23;4.60;;;12.30;99.90;;;;;;5063966;28;20487;-60
2022/03/16 01:55:44;;;;;;;3.03;1.50;;;12.20;99.90;;;;;;5064510;28;20525;-59
2022/03/16 01:58:17;;;;;;;4.17;2.20;;;12.30;99.90;;;;;;5067009;28;20444;-64
2022/03/16 02:00:48;;;;;;;2.40;1.10;;;12.20;99.90;;;;;;5062054;28;20547;-62
2022/03/16 02:03:19;;;;;;;3.27;1.10;;;12.10;99.90;;;;;;5070434;28;20467;-61
2022/03/16 02:05:51;;;;;;;5.60;3.03;;;11.90;99.90;;;;;;5065443;28;20449;-60
2022/03/16 02:08:27;;;;;;;3.10;1.10;;;11.50;99.90;;;;;;5063742;28;20453;-60
2022/03/16 02:10:58;;;;;;;4.80;1.10;;;11.30;99.90;;;;;;5068253;28;20986;-62
2022/03/16 02:13:29;;;;;;;2.60;1.83;;;11.10;99.90;;;;;;5050130;28;20480;-59
2022/03/16 02:15:59;;;;;;;5.80;1.33;;;10.90;99.90;;;;;;5074650;28;20452;-60
2022/03/16 02:18:30;;;;;;;1.30;1.10;;;10.70;99.90;;;;;;5065249;28;20441;-60
2022/03/16 02:21:03;;;;;;;6.27;2.80;;;10.50;99.90;;;;;;5064215;28;20468;-60
2022/03/16 02:23:36;;;;;;;8.73;3.63;;;10.50;99.90;;;;;;5062653;28;20492;-60
2022/03/16 02:26:08;;;;;;;4.93;2.47;;;10.40;99.90;;;;;;5058906;28;20449;-61
2022/03/16 02:28:39;;;;;;;7.50;2.00;;;10.40;99.90;;;;;;5060321;28;20449;-59
2022/03/16 02:31:09;;;;;;;5.67;3.33;;;10.30;99.90;;;;;;5062045;28;20472;-59
2022/03/16 02:33:40;;;;;;;1.70;1.60;;;10.40;99.90;;;;;;5062990;28;20955;-59
2022/03/16 02:36:11;;;;;;;6.47;2.10;;;10.40;99.90;;;;;;5054108;28;20928;-60
2022/03/16 02:38:44;;;;;;;5.00;2.00;;;10.40;99.90;;;;;;5058571;28;20524;-60
2022/03/16 02:41:16;;;;;;;7.90;1.50;;;10.40;99.90;;;;;;5055620;28;20457;-60
2022/03/16 02:43:46;;;;;;;5.73;1.90;;;10.40;99.90;;;;;;5045565;28;20468;-60
2022/03/16 02:46:17;;;;;;;5.50;1.60;;;10.40;99.90;;;;;;5051990;28;20467;-60
2022/03/16 02:48:48;;;;;;;5.60;2.33;;;10.30;99.90;;;;;;5049247;28;20518;-60
2022/03/16 02:51:19;;;;;;;3.80;1.30;;;10.30;99.90;;;;;;5059792;28;20458;-60
2022/03/16 02:53:52;;;;;;;3.73;1.80;;;10.40;99.90;;;;;;5047497;28;20492;-60
2022/03/16 02:56:27;;;;;;;3.33;1.80;;;10.40;99.90;;;;;;5057288;28;20457;-60
2022/03/16 02:58:58;;;;;;;4.80;1.90;;;10.40;99.90;;;;;;5061771;28;20451;-60
2022/03/16 03:01:29;;;;;;;7.23;1.70;;;10.40;99.90;;;;;;5067864;28;20443;-60
2022/03/16 03:04:00;;;;;;;2.53;1.40;;;10.40;99.90;;;;;;5058866;28;20899;-60
2022/03/16 03:06:31;;;;;;;3.80;1.40;;;10.40;99.90;;;;;;5051732;28;20580;-59
2022/03/16 03:09:04;;;;;;;4.27;1.30;;;10.40;99.90;;;;;;5052850;28;20456;-63
2022/03/16 03:11:36;;;;;;;6.20;1.60;;;10.40;99.90;;;;;;5060148;28;20449;-60
2022/03/16 03:14:07;;;;;;;2.07;1.47;;;10.40;99.90;;;;;;5055791;28;20518;-60
2022/03/16 03:16:37;;;;;;;1.97;0.90;;;10.30;99.90;;;;;;5058008;28;20506;-59
2022/03/16 03:19:08;;;;;;;2.10;1.57;;;10.30;99.90;;;;;;5061898;28;20491;-60
2022/03/16 03:21:39;;;;;;;2.10;1.40;;;10.20;99.90;;;;;;5070388;28;20459;-60
2022/03/16 03:24:13;;;;;;;2.83;1.27;;;10.20;99.90;;;;;;5065215;28;20448;-60
2022/03/16 03:26:43;;;;;;;2.77;1.13;;;10.30;99.90;;;;;;5054216;28;20554;-59
2022/03/16 03:29:15;;;;;;;2.07;1.50;;;10.40;99.90;;;;;;5069349;28;20455;-60
2022/03/16 03:31:46;;;;;;;4.37;1.50;;;10.40;99.90;;;;;;5065343;28;20464;-61
2022/03/16 03:34:17;;;;;;;2.83;1.13;;;10.50;99.90;;;;;;5063424;28;20534;-60
2022/03/16 03:36:48;;;;;;;1.20;1.10;;;10.40;99.90;;;;;;5060959;28;20546;-60
2022/03/16 03:39:20;;;;;;;2.00;1.60;;;10.40;99.90;;;;;;5062786;28;20467;-60
2022/03/16 03:41:51;;;;;;;1.87;1.30;;;10.30;99.90;;;;;;5059782;28;20457;-60
2022/03/16 03:44:22;;;;;;;2.83;1.20;;;10.40;99.90;;;;;;5061117;28;20502;-59
2022/03/16 03:46:54;;;;;;;2.00;1.00;;;10.40;99.90;;;;;;5063838;28;20454;-60
2022/03/16 03:49:25;;;;;;;2.43;0.90;;;10.20;99.90;;;;;;5057555;28;20456;-61
2022/03/16 03:51:56;;;;;;;2.33;0.93;;;10.20;99.90;;;;;;5062954;28;20452;-60
2022/03/16 03:54:28;;;;;;;2.20;1.03;;;10.30;99.90;;;;;;5065039;28;20951;-60
2022/03/16 03:57:03;;;;;;;1.77;1.27;;;10.30;99.90;;;;;;5062490;28;20452;-60
2022/03/16 03:59:34;;;;;;;2.10;1.03;;;10.20;99.90;;;;;;5060287;28;20494;-60
2022/03/16 04:02:05;;;;;;;4.60;3.07;;;10.10;99.90;;;;;;5061783;28;20436;-61
2022/03/16 04:04:36;;;;;;;4.27;3.17;;;10.20;99.90;;;;;;5062009;28;20453;-60
2022/03/16 04:07:09;;;;;;;4.10;3.30;;;10.20;99.90;;;;;;5061428;28;20474;-61
2022/03/16 04:09:46;;;;;;;3.77;3.00;;;10.20;99.90;;;;;;5065577;28;20473;-60
2022/03/16 04:12:19;;;;;;;2.43;2.23;;;10.20;99.90;;;;;;5058491;28;20817;-61
2022/03/16 04:14:50;;;;;;;2.73;1.97;;;10.20;99.90;;;;;;5067925;28;20483;-60
2022/03/16 04:17:20;;;;;;;1.53;1.43;;;10.20;99.90;;;;;;5065328;28;20488;-60
2022/03/16 04:19:51;;;;;;;3.53;2.07;;;10.10;99.90;;;;;;5070032;28;20958;-60
2022/03/16 04:22:22;;;;;;;2.00;1.50;;;10.10;99.90;;;;;;5065885;28;20568;-61
2022/03/16 04:24:55;;;;;;;2.00;1.63;;;10.20;99.90;;;;;;5064567;28;20458;-61
2022/03/16 04:27:29;;;;;;;4.20;1.30;;;10.10;99.90;;;;;;5048858;28;20459;-60
2022/03/16 04:30:01;;;;;;;1.43;1.33;;;10.10;99.90;;;;;;5065325;28;20523;-61
2022/03/16 04:32:34;;;;;;;1.27;1.07;;;10.10;99.90;;;;;;5065603;28;20807;-63
2022/03/16 04:35:06;;;;;;;2.37;1.30;;;10.00;99.90;;;;;;5071683;28;20495;-64
2022/03/16 04:37:37;;;;;;;2.73;1.50;;;10.00;99.90;;;;;;5069919;28;20487;-61
2022/03/16 04:40:11;;;;;;;4.33;2.57;;;10.00;99.90;;;;;;5067521;28;20536;-61
2022/03/16 04:42:42;;;;;;;1.37;1.10;;;9.90;99.90;;;;;;5063899;28;20478;-61
2022/03/16 04:45:13;;;;;;;2.23;1.30;;;9.70;99.90;;;;;;5064013;28;20459;-61
2022/03/16 04:47:44;;;;;;;2.70;1.33;;;9.70;99.90;;;;;;5051558;28;20454;-61
2022/03/16 04:50:15;;;;;;;3.33;1.50;;;9.70;99.90;;;;;;5077070;28;20468;-61
2022/03/16 04:52:47;;;;;;;3.53;1.30;;;9.80;99.90;;;;;;5065691;28;20905;-61
2022/03/16 04:55:23;;;;;;;2.13;1.50;;;9.80;99.90;;;;;;5065421;28;20506;-61
2022/03/16 04:58:00;;;;;;;2.57;1.20;;;9.80;99.90;;;;;;5063452;28;20459;-61
2022/03/16 05:00:31;;;;;;;2.23;1.50;;;9.60;99.90;;;;;;5065221;28;20450;-61
2022/03/16 05:03:02;;;;;;;3.72;1.85;;;9.60;99.90;;;;;;5065024;28;20462;-61
2022/03/16 05:05:40;;;;;;;4.20;1.80;;;9.50;99.90;;;;;;5065765;28;20198;-61
2022/03/16 05:08:11;;;;;;;3.37;1.60;;;9.50;99.90;;;;;;5063951;28;20476;-61
2022/03/16 05:10:45;;;;;;;2.40;1.37;;;9.40;99.90;;;;;;5077375;28;20451;-61
2022/03/16 05:13:15;;;;;;;2.50;1.80;;;9.30;99.90;;;;;;5063280;28;20474;-61
2022/03/16 05:15:47;;;;;;;3.03;2.03;;;9.30;99.90;;;;;;5054751;28;20487;-61
2022/03/16 05:18:18;;;;;;;2.50;1.43;;;9.20;99.90;;;;;;5064936;28;20451;-61
2022/03/16 05:20:49;;;;;;;5.27;1.53;;;9.00;99.90;;;;;;5074662;28;20483;-61
2022/03/16 05:23:20;;;;;;;3.15;1.95;;;9.00;99.90;;;;;;5064148;28;20452;-61
2022/03/16 05:25:53;;;;;;;1.53;1.33;;;8.90;99.90;;;;;;5067845;28;20216;-61
2022/03/16 05:28:24;;;;;;;3.43;1.50;;;8.90;99.90;;;;;;5062676;28;20491;-61
2022/03/16 05:30:55;;;;;;;2.33;1.50;;;8.90;99.90;;;;;;5064715;28;20444;-61
2022/03/16 05:33:26;;;;;;;2.10;1.40;;;8.70;99.90;;;;;;5065539;28;20467;-61
2022/03/16 05:35:56;;;;;;;6.87;2.13;;;8.70;99.90;;;;;;5064350;28;20514;-61
2022/03/16 05:38:27;;;;;;;4.27;2.03;;;8.70;99.90;;;;;;5080381;28;20470;-61
2022/03/16 05:41:03;;;;;;;5.40;2.43;;;8.70;99.90;;;;;;5068423;28;20448;-61
2022/03/16 05:43:33;;;;;;;4.25;2.60;;;8.80;99.90;;;;;;5062997;28;20519;-60
2022/03/16 05:46:04;;;;;;;3.90;2.43;;;8.90;99.90;;;;;;5067888;28;20198;-60
2022/03/16 05:48:35;;;;;;;6.93;2.85;;;8.90;99.90;;;;;;5072848;28;20454;-61
2022/03/16 05:51:06;;;;;;;4.53;2.93;;;8.90;99.90;;;;;;5068647;28;20221;-61
2022/03/16 05:53:37;;;;;;;4.38;2.92;;;8.80;99.90;;;;;;5065070;28;20440;-61
2022/03/16 05:56:10;;;;;;;6.50;3.00;;;8.70;99.90;;;;;;5064745;28;20297;-61
2022/03/16 05:58:42;;;;;;;4.88;3.25;;;8.50;99.90;;;;;;5063973;28;20205;-61
2022/03/16 06:01:13;;;;;;;4.60;2.70;;;8.50;99.90;;;;;;5064967;28;20193;-61
2022/03/16 06:03:44;;;;;;;14.32;4.13;;;8.50;99.90;;;;;;5071623;28;20201;-61
2022/03/16 06:06:15;;;;;;;4.35;3.00;;;8.50;99.90;;;;;;5066616;28;20650;-61
2022/03/16 06:08:46;;;;;;;4.50;3.58;;;8.50;99.90;;;;;;5063436;28;20202;-61
2022/03/16 06:11:21;;;;;;;6.45;3.17;;;8.50;99.90;;;;;;5060452;28;20207;-61
2022/03/16 06:13:52;;;;;;;5.20;3.15;;;8.50;99.90;;;;;;5060307;28;20197;-61
2022/03/16 06:16:23;;;;;;;6.03;4.25;;;8.60;99.90;;;;;;5069396;28;20233;-61
2022/03/16 06:18:54;;;;;;;5.10;2.60;;;8.60;99.90;;;;;;5062920;28;20210;-60
2022/03/16 06:21:25;;;;;;;4.18;3.40;;;8.70;99.90;;;;;;5064744;28;20202;-60
2022/03/16 06:23:55;;;;;;;5.55;3.05;;;8.70;99.90;;;;;;5063278;28;20222;-61
2022/03/16 06:26:28;;;;;;;9.80;3.25;;;8.70;99.90;;;;;;5063152;28;20197;-61
2022/03/16 06:28:59;;;;;;;6.00;2.78;;;8.50;99.90;;;;;;5073116;28;20261;-60
2022/03/16 06:31:30;;;;;;;6.15;2.78;;;8.60;99.90;;;;;;5067159;28;20202;-60
2022/03/16 06:34:01;;;;;;;7.28;2.60;;;8.60;99.90;;;;;;5075598;28;20254;-61
2022/03/16 06:36:33;;;;;;;4.78;2.50;;;8.50;99.90;;;;;;5067910;28;20225;-61
2022/03/16 06:39:04;;;;;;;4.05;2.53;;;8.50;99.90;;;;;;5063526;28;20274;-61
2022/03/16 06:41:37;;;;;;;4.47;2.53;;;8.50;99.90;;;;;;5065645;28;20217;-61
2022/03/16 06:44:08;;;;;;;6.45;2.63;;;8.30;99.90;;;;;;5062756;28;20610;-60
2022/03/16 06:46:44;;;;;;;4.70;2.22;;;8.40;99.90;;;;;;5056233;28;20183;-61
2022/03/16 06:49:15;;;;;;;4.38;2.40;;;8.50;99.90;;;;;;5062600;28;20198;-61
2022/03/16 06:51:46;;;;;;;9.07;2.70;;;8.50;99.90;;;;;;5065110;28;20205;-61
2022/03/16 06:54:17;;;;;;;4.65;2.50;;;8.50;99.90;;;;;;5062405;28;20218;-61
2022/03/16 06:56:50;;;;;;;4.50;2.20;;;8.50;99.90;;;;;;5065435;28;20225;-60
2022/03/16 06:59:20;;;;;;;5.93;2.25;;;8.50;99.90;;;;;;5062127;28;20222;-61
2022/03/16 07:01:52;;;;;;;7.55;3.58;;;8.50;99.90;;;;;;5062598;28;20212;-60
2022/03/16 07:04:23;;;;;;;6.85;2.80;;;8.40;99.90;;;;;;5065100;28;20202;-61
2022/03/16 07:06:54;;;;;;;7.03;2.25;;;8.50;99.90;;;;;;5070903;28;20602;-60
2022/03/16 07:09:26;;;;;;;4.03;2.15;;;8.40;99.90;;;;;;5065891;28;20209;-60
2022/03/16 07:11:59;;;;;;;5.78;2.13;;;8.40;99.90;;;;;;5066352;28;20224;-60
2022/03/16 07:14:33;;;;;;;9.15;2.97;;;8.30;99.90;;;;;;5063632;28;20259;-59
2022/03/16 07:17:04;;;;;;;4.93;2.10;;;8.30;99.90;;;;;;5066180;28;20258;-60
2022/03/16 07:19:36;;;;;;;4.75;2.47;;;8.20;99.90;;;;;;5074029;28;20197;-60
2022/03/16 07:22:10;;;;;;;5.93;2.25;;;8.30;99.90;;;;;;5061679;28;20221;-60
2022/03/16 07:24:41;;;;;;;5.55;2.10;;;8.40;99.90;;;;;;5069239;28;20258;-60
2022/03/16 07:27:14;;;;;;;4.13;2.13;;;8.40;99.90;;;;;;5062280;28;20204;-60
2022/03/16 07:29:45;;;;;;;8.30;2.70;;;8.40;99.90;;;;;;5067644;28;20208;-60
2022/03/16 07:32:16;;;;;;;9.38;2.83;;;8.40;99.90;;;;;;5062359;28;20194;-60
2022/03/16 07:34:47;;;;;;;9.25;2.38;;;8.50;99.90;;;;;;5065748;28;20230;-60
2022/03/16 07:37:19;;;;;;;3.15;2.25;;;8.50;99.90;;;;;;5061715;28;20222;-60
2022/03/16 07:39:50;;;;;;;7.15;3.20;;;8.50;99.90;;;;;;5072903;28;20231;-60
2022/03/16 07:42:34;;;;;;;6.35;2.00;;;8.60;99.90;;;;;;5061104;28;20217;-60
2022/03/16 07:45:06;;;;;;;5.88;2.30;;;8.60;99.90;;;;;;5063738;28;20202;-60
2022/03/16 07:47:39;;;;;;;6.88;2.17;;;8.60;99.90;;;;;;5071049;28;20201;-60
2022/03/16 07:50:11;;;;;;;4.07;1.88;;;8.60;99.90;;;;;;5063622;28;20285;-60
2022/03/16 07:52:42;;;;;;;3.05;1.83;;;8.60;99.90;;;;;;5066993;28;20202;-60
2022/03/16 07:55:15;;;;;;;4.60;3.28;;;8.60;99.90;;;;;;5064331;28;20212;-60
2022/03/16 07:57:49;;;;;;;4.40;2.10;;;8.60;99.90;;;;;;5061472;28;20234;-60
2022/03/16 08:00:20;;;;;;;11.77;2.85;;;8.60;99.90;;;;;;5061554;28;20206;-60
2022/03/16 08:02:59;;;;;;;5.80;2.40;;;8.60;99.90;;;;;;5061613;28;20190;-60
2022/03/16 08:05:30;;;;;;;8.45;2.67;;;8.70;99.90;;;;;;5064331;28;20192;-60
2022/03/16 08:08:01;;;;;;;11.07;2.80;;;8.70;99.90;;;;;;5066869;28;20210;-60
2022/03/16 08:10:32;;;;;;;4.25;2.33;;;8.70;99.90;;;;;;5061183;28;20540;-60
2022/03/16 08:13:05;;;;;;;7.72;2.40;;;8.70;99.90;;;;;;5064670;28;20213;-60
2022/03/16 08:15:36;;;;;;;4.20;2.75;;;8.70;99.90;;;;;;5064685;28;20210;-60
2022/03/16 08:18:08;;;;;;;4.65;2.97;;;8.70;99.90;;;;;;5067331;28;20637;-60
2022/03/16 08:20:39;;;;;;;8.35;3.17;;;8.70;99.90;;;;;;5062610;28;20229;-60
2022/03/16 08:23:10;;;;;;;5.50;2.42;;;8.70;99.90;;;;;;5066018;28;20215;-60
2022/03/16 08:25:55;;;;;;;6.40;3.08;;;8.80;99.90;;;;;;5060722;28;20205;-60
2022/03/16 08:28:28;;;;;;;4.97;2.50;;;8.80;99.90;;;;;;5062809;28;20205;-60
2022/03/16 08:31:01;;;;;;;7.30;2.15;;;8.80;99.90;;;;;;5062155;28;20201;-60
2022/03/16 08:33:34;;;;;;;6.60;2.80;;;8.80;99.90;;;;;;5067660;28;20209;-60
2022/03/16 08:36:07;;;;;;;8.23;3.00;;;8.70;99.90;;;;;;5067871;28;20265;-61
2022/03/16 08:38:40;;;;;;;5.90;2.10;;;8.70;99.90;;;;;;5068273;28;20202;-60
2022/03/16 08:41:11;;;;;;;5.25;2.33;;;8.70;99.90;;;;;;5060233;28;20215;-60
2022/03/16 08:43:44;;;;;;;7.72;2.33;;;8.80;99.90;;;;;;5067173;28;20198;-60
2022/03/16 08:46:15;;;;;;;5.25;2.45;;;8.80;99.90;;;;;;5064030;28;20219;-60
2022/03/16 08:48:46;;;;;;;5.03;2.13;;;8.70;99.90;;;;;;5062045;28;20276;-60
2022/03/16 08:51:17;;;;;;;5.95;2.33;;;8.70;99.90;;;;;;5063645;28;20201;-60
2022/03/16 08:53:49;;;;;;;6.53;2.60;;;8.70;99.90;;;;;;5065908;28;20217;-59
2022/03/16 08:56:21;;;;;;;5.03;2.25;;;8.70;99.90;;;;;;5064991;28;20202;-60
2022/03/16 08:58:54;;;;;;;4.40;2.08;;;8.70;99.90;;;;;;5068203;28;20201;-60
2022/03/16 09:01:25;;;;;;;5.32;2.10;;;8.70;99.90;;;;;;5064311;28;20206;-60
2022/03/16 09:04:05;;;;;;;4.45;2.30;;;8.70;99.90;;;;;;5071861;28;20193;-60
2022/03/16 09:06:36;;;;;;;5.15;2.50;;;8.60;99.90;;;;;;5070992;28;20269;-60
2022/03/16 09:09:10;;;;;;;2.22;1.90;;;8.70;99.90;;;;;;5071756;28;20561;-60
2022/03/16 09:11:41;;;;;;;5.63;2.15;;;8.60;99.90;;;;;;5051987;28;20267;-60
2022/03/16 09:14:14;;;;;;;4.15;2.00;;;8.60;99.90;;;;;;5066987;28;20628;-60
2022/03/16 09:16:46;;;;;;;6.82;3.85;;;8.50;99.90;;;;;;5066138;28;20352;-60
2022/03/16 09:19:23;;;;;;;5.43;2.10;;;8.40;99.90;;;;;;5068531;28;20197;-60
2022/03/16 09:21:56;;;;;;;3.67;2.33;;;8.30;99.90;;;;;;5074991;28;20472;-60
2022/03/16 09:24:28;;;;;;;3.58;1.98;;;8.30;99.90;;;;;;5071709;28;20203;-60
2022/03/16 09:27:00;;;;;;;5.63;2.75;;;8.20;99.90;;;;;;5063719;28;20582;-60
2022/03/16 09:29:34;;;;;;;6.05;2.17;;;8.20;99.90;;;;;;5068348;28;20296;-60
2022/03/16 09:32:10;;;;;;;3.20;2.00;;;8.10;99.90;;;;;;5071992;28;20255;-60
2022/03/16 09:34:41;;;;;;;4.85;2.25;;;8.00;99.90;;;;;;5064745;28;20190;-60
2022/03/16 09:37:13;;;;;;;4.35;2.35;;;7.90;99.90;;;;;;5073597;28;20221;-60
2022/03/16 09:39:44;;;;;;;5.43;2.75;;;7.90;99.90;;;;;;5071811;28;20194;-60
2022/03/16 09:42:15;;;;;;;6.05;2.20;;;7.80;99.90;;;;;;5064108;28;20351;-60
2022/03/16 09:44:49;;;;;;;2.28;1.80;;;7.80;99.90;;;;;;5077139;28;20198;-60
2022/03/16 09:47:22;;;;;;;5.38;1.75;;;7.70;99.90;;;;;;5064297;28;20210;-60
2022/03/16 09:49:58;;;;;;;5.72;2.63;;;7.70;99.90;;;;;;5063255;28;20225;-60
2022/03/16 09:52:30;;;;;;;6.93;2.85;;;7.80;99.90;;;;;;5058964;28;20286;-60
2022/03/16 09:55:05;;;;;;;4.38;2.20;;;7.80;99.90;;;;;;5073955;28;20205;-60
2022/03/16 09:57:36;;;;;;;5.03;2.90;;;7.80;99.90;;;;;;5063798;28;20248;-60
2022/03/16 10:00:17;;;;;;;8.55;2.80;;;7.90;99.90;;;;;;5071162;28;20232;-60
2022/03/16 10:02:48;;;;;;;7.38;3.08;;;7.90;99.90;;;;;;5051331;28;20202;-60
2022/03/16 10:05:28;;;;;;;7.43;2.58;;;7.80;99.90;;;;;;5064562;28;20227;-60
2022/03/16 10:08:02;;;;;;;4.80;2.28;;;7.90;99.90;;;;;;5066437;28;20201;-60
2022/03/16 10:13:22;;;;;;;8.52;2.97;;;8.00;99.90;;;;;;5060493;28;20290;-60
2022/03/16 10:16:09;;;;;;;6.00;2.20;;;8.00;99.90;;;;;;5069616;28;20204;-60
2022/03/16 10:18:40;;;;;;;7.30;2.63;;;8.10;99.90;;;;;;5064632;28;20234;-60
2022/03/16 10:21:15;;;;;;;6.97;3.10;;;8.10;99.90;;;;;;5064572;28;20238;-60
2022/03/16 10:23:47;;;;;;;13.85;3.08;;;8.20;99.90;;;;;;5062717;28;20204;-60
2022/03/16 10:26:18;;;;;;;10.63;3.13;;;8.20;99.90;;;;;;5063534;28;20204;-60
2022/03/16 10:28:49;;;;;;;4.78;2.70;;;8.10;99.90;;;;;;5062606;28;20197;-60
2022/03/16 10:31:21;;;;;;;5.75;2.67;;;8.10;99.90;;;;;;5064134;28;20213;-60
2022/03/16 10:33:54;;;;;;;6.10;2.90;;;8.00;99.90;;;;;;5071397;28;20263;-60
2022/03/16 10:36:26;;;;;;;4.85;2.67;;;8.00;99.90;;;;;;5069423;28;20210;-60
2022/03/16 10:39:00;;;;;;;6.70;2.95;;;8.00;99.90;;;;;;5066754;28;20264;-59
2022/03/16 10:47:14;;;;;;;6.07;2.50;;;8.00;99.90;;;;;;5064689;28;20272;-60
2022/03/16 10:49:47;;;;;;;6.75;2.80;;;8.00;99.90;;;;;;5070588;28;20204;-60
2022/03/16 10:52:19;;;;;;;13.85;2.63;;;8.10;99.90;;;;;;5077683;28;20201;-60
2022/03/16 10:54:50;;;;;;;9.35;2.42;;;8.00;99.90;;;;;;5065076;28;20214;-60
2022/03/16 10:57:21;;;;;;;5.40;2.70;;;8.10;99.90;;;;;;5062152;28;20210;-60
2022/03/16 10:59:55;;;;;;;11.07;3.33;;;8.10;99.90;;;;;;5062924;28;20261;-60
2022/03/16 11:02:34;;;;;;;8.32;2.33;;;8.10;99.90;;;;;;5062691;28;20477;-59
2022/03/16 11:05:05;;;;;;;6.90;2.83;;;8.10;99.90;;;;;;5061436;28;20201;-60
2022/03/16 11:07:41;;;;;;;8.13;3.33;;;8.00;99.90;;;;;;5068295;28;20206;-59
2022/03/16 11:10:12;;;;;;;4.30;2.80;;;8.00;99.90;;;;;;5070488;28;20207;-59
2022/03/16 11:15:31;;;;;;;5.65;2.80;;;8.00;99.90;;;;;;5054193;28;20206;-60
2022/03/16 11:18:04;;;;;;;7.10;3.08;;;8.00;99.90;;;;;;5060499;28;20233;-60
2022/03/16 11:20:36;;;;;;;7.38;2.85;;;7.90;99.90;;;;;;5062554;28;20626;-59
2022/03/16 11:26:12;;;;;;;7.22;3.15;;;7.80;99.90;;;;;;5067727;28;20224;-60
2022/03/16 11:28:57;;;;;;;7.75;3.10;;;7.70;99.90;;;;;;5061111;28;20289;-60
2022/03/16 11:31:36;;;;;;;4.70;2.92;;;7.60;99.90;;;;;;5067316;28;20270;-60
2022/03/16 11:34:10;;;;;;;7.90;2.80;;;7.60;99.90;;;;;;5063141;28;20209;-60
2022/03/16 11:36:43;;;;;;;6.80;2.72;;;7.60;99.90;;;;;;5062043;28;20197;-59
2022/03/16 11:39:18;;;;;;;5.82;3.63;;;7.50;99.90;;;;;;5062522;28;20288;-59
2022/03/16 11:41:54;;;;;;;4.50;2.60;;;7.40;99.90;;;;;;5068953;28;20195;-59
2022/03/16 11:44:33;;;;;;;5.10;2.42;;;7.50;99.90;;;;;;5062889;28;20201;-59
2022/03/16 11:47:37;;;;;;;4.07;2.80;;;7.50;99.90;;;;;;5074182;28;20213;-60
2022/03/16 11:50:13;;;;;;;7.30;3.20;;;7.50;99.90;;;;;;5057841;28;20210;-60
2022/03/16 11:53:07;;;;;;;5.82;2.70;;;7.50;99.90;;;;;;5061454;28;20236;-60
2022/03/16 11:55:47;;;;;;;8.70;2.42;;;7.40;99.90;;;;;;5041022;28;20209;-60
2022/03/16 11:58:19;;;;;;;3.63;2.17;;;7.40;99.90;;;;;;5070457;28;20229;-59
2022/03/16 12:00:50;;;;;;;10.35;2.58;;;7.50;99.90;;;;;;5064604;28;20198;-59
2022/03/16 12:03:24;;;;;;;5.03;2.92;;;7.60;99.90;;;;;;5061631;28;20198;-59
2022/03/16 12:06:00;;;;;;;3.15;2.00;;;7.70;99.90;;;;;;5064151;28;20205;-59
2022/03/16 12:08:37;;;;;;;5.57;2.50;;;7.70;99.90;;;;;;5069291;28;20347;-59
2022/03/16 12:13:57;;;;;;;5.40;2.40;;;7.60;99.90;;;;;;5055795;28;20248;-60
2022/03/16 12:16:28;;;;;;;7.32;3.13;;;7.60;99.90;;;;;;5062127;28;20226;-60
2022/03/16 12:18:59;;;;;;;5.15;2.10;;;7.60;99.90;;;;;;5065433;28;20217;-60
2022/03/16 12:21:35;;;;;;;5.90;2.38;;;7.50;99.90;;;;;;5067132;28;20200;-59
2022/03/16 12:29:59;;;;;;;7.40;2.60;;;7.50;99.90;;;;;;5002004;28;20222;-60
2022/03/16 12:32:40;;;;;;;9.48;3.10;;;7.30;99.90;;;;;;4996819;28;20271;-60
2022/03/16 12:35:12;;;;;;;5.65;2.65;;;7.20;99.90;;;;;;5004549;28;20708;-60
2022/03/16 12:37:52;;;;;;;5.28;2.28;;;7.20;99.90;;;;;;5007945;28;20258;-60
2022/03/16 12:40:25;;;;;;;5.85;2.03;;;7.10;99.90;;;;;;5003986;28;20313;-59
2022/03/16 12:42:57;;;;;;;6.55;3.10;;;7.20;99.90;;;;;;5003853;28;20275;-60
2022/03/16 12:45:30;;;;;;;6.50;2.25;;;7.10;99.90;;;;;;5010712;28;20195;-60
2022/03/16 12:48:10;;;;;;;8.23;3.63;;;7.00;99.90;;;;;;4998249;28;20331;-59
2022/03/16 12:50:47;;;;;;;9.38;3.25;;;7.00;99.90;;;;;;5007701;28;20222;-60
2022/03/16 12:53:44;;;;;;;4.43;2.15;;;7.00;99.90;;;;;;5004083;28;20306;-60
2022/03/16 12:56:18;;;;;;;8.07;2.92;;;7.00;99.90;;;;;;4999405;28;20219;-60
2022/03/16 12:58:53;;;;;;;8.68;2.53;;;6.90;99.90;;;;;;5003026;28;20334;-60
2022/03/16 13:01:25;;;;;;;8.30;2.33;;;6.90;99.90;;;;;;5019413;28;20187;-60
2022/03/16 13:04:04;;;;;;;7.47;3.03;;;6.90;99.90;;;;;;5071076;28;20212;-59
2022/03/16 13:06:35;;;;;;;6.03;2.40;;;6.90;99.90;;;;;;5073700;28;20197;-60
2022/03/16 13:09:09;;;;;;;5.00;2.50;;;6.90;99.90;;;;;;5064397;28;20251;-60
2022/03/16 13:11:41;;;;;;;7.40;3.03;;;6.80;99.90;;;;;;5068049;28;20202;-60
2022/03/16 13:14:13;;;;;;;4.75;2.50;;;6.80;99.90;;;;;;5049262;28;20213;-60
2022/03/16 13:16:45;;;;;;;5.13;2.92;;;6.60;99.90;;;;;;5064921;28;20697;-61
2022/03/16 13:19:20;;;;;;;6.70;2.55;;;6.60;99.90;;;;;;5076667;28;20241;-60
2022/03/16 13:21:52;;;;;;;4.85;2.80;;;6.60;99.90;;;;;;5080143;28;20213;-59
2022/03/16 13:24:25;;;;;;;6.07;2.55;;;6.60;99.90;;;;;;5068142;28;20274;-59
2022/03/16 13:26:56;;;;;;;6.15;2.30;;;6.60;99.90;;;;;;5074314;28;20214;-59
2022/03/16 13:29:28;;;;;;;8.23;3.50;;;6.60;99.90;;;;;;5075870;28;20584;-60
2022/03/16 13:32:02;;;;;;;6.50;2.80;;;6.60;99.90;;;;;;5080529;28;20201;-61
2022/03/16 13:34:36;;;;;;;7.03;3.03;;;6.70;99.90;;;;;;5063277;28;20202;-60
2022/03/16 13:37:22;;;;;;;6.68;2.42;;;6.80;99.90;;;;;;5065820;28;20206;-59
2022/03/16 13:40:00;;;;;;;7.28;3.92;;;6.80;99.90;;;;;;5065972;28;20228;-60
2022/03/16 13:42:32;;;;;;;6.97;2.80;;;6.90;99.90;;;;;;5069158;28;20398;-60
2022/03/16 13:45:18;;;;;;;5.18;2.42;;;6.90;99.90;;;;;;5063947;28;20205;-59